Eastern Oregon Regional At Pendleton Airport
KPDT : now visible

Airfield :











YOU CAN JOIN US ON...

 
LOGIN :

Register | Disclaimer

   EN    FR    IT 

 









Legend :    VFR   Marginal VFR   IFR   Intensive IFR   Very Intensive IFR
Visi :
Ceiling :
>= 8 km
>= 3000ft
5 to 8 km
1000 to 3000 ft
1500m to 5 km
500 to 1000 ft
800 to 1500m
200 to 500 ft
< 800m
< 200 ft
Symbols :   Thunderstorms  Fog  Heavy snow  Heavy precipitations  Wind > 20 kt






- Airport Elevation : 1497 ft


KPDT - Eastern Oregon Regional At Pendleton

CURRENT METAR :
  • 210953Z AUTO 14009KT 10SM CLR 23/08 A2995 RMK AO2 SLP122 T02280078

EXPIRED METARs :
  • 210853Z AUTO 13008KT 10SM CLR 22/08 A2996 RMK AO2 SLP123 T02170078 58007
  • 210753Z AUTO 14007KT 10SM CLR 23/08 A2996 RMK AO2 SLP126 T02280083 404000156
  • 210653Z AUTO 13007KT 10SM CLR 25/09 A2998 RMK AO2 SLP130 T02500089

TAF KPDT
Valid from the 21 at 06:00 until the 22 at 06:00 UTC


210520Z 2106/2206 12008KT P6SM SKC
FM211700 31009KT P6SM SCT250
FM220000 30008KT P6SM BKN150
KZSE FIR / North America



MET'MAP, your aeronautical weather chart ! - Copyright ORBIFLY December 2007 - Disclaimer

ORBIFLY MET'MAP TEAM :

Programming & Development : Alexandra Zaïnal
Original concept : Baudouin d'Aumeries
Technical & hardware support : Manuel Goepfert
Assistance : Marc-Olivier Méhu




SOURCES & CREDITS :

   NOAA       Earth
Advisory